Time;durP1;ratioP1;P1;durP2;ratioP2;P2;SDS_P1;SDS_P2;PMS_P1;PMS_P2;Temp;Humidity;BMP_temperature;BMP_pressure;BME280_temperature;BME280_humidity;BME280_pressure;Samples;Min_cycle;Max_cycle;Signal;HPM_P1;HPM_P2
2023/06/05 00:00:57;;;;;;;;;;;10.80;99.30;;;;;;5067256;28;20033;-59
2023/06/05 00:03:24;;;;;;;2.85;1.60;;;10.80;99.40;;;;;;5078299;28;20015;-61
2023/06/05 00:05:50;;;;;;;3.28;2.08;;;10.80;99.40;;;;;;5082100;28;20108;-59
2023/06/05 00:08:16;;;;;;;5.28;1.50;;;10.70;99.50;;;;;;5092079;28;20043;-61
2023/06/05 00:10:42;;;;;;;2.38;1.80;;;10.70;99.90;;;;;;5094074;28;20064;-60
2023/06/05 00:13:07;;;;;;;;;;;10.70;99.80;;;;;;5087317;28;20066;-61
2023/06/05 00:15:35;;;;;;;2.92;1.30;;;10.70;99.90;;;;;;5080854;28;20563;-62
2023/06/05 00:18:03;;;;;;;2.35;1.60;;;10.60;99.80;;;;;;5085772;28;20082;-62
2023/06/05 00:20:29;;;;;;;6.50;1.90;;;10.60;99.90;;;;;;5083516;28;20051;-63
2023/06/05 00:22:55;;;;;;;3.20;1.80;;;10.60;99.90;;;;;;5071960;28;20128;-62
2023/06/05 00:25:21;;;;;;;;;;;10.60;99.90;;;;;;5074153;28;20124;-61
2023/06/05 00:27:46;;;;;;;6.93;1.95;;;10.60;99.90;;;;;;5082997;28;19924;-67
2023/06/05 00:30:13;;;;;;;;;;;10.50;99.90;;;;;;5083538;28;21172;-61
2023/06/05 00:32:41;;;;;;;3.25;1.98;;;10.40;99.90;;;;;;5077085;28;19974;-62
2023/06/05 00:35:08;;;;;;;2.88;1.40;;;10.40;99.90;;;;;;5070628;28;20499;-61
2023/06/05 00:37:34;;;;;;;4.68;2.50;;;10.40;99.90;;;;;;5070129;28;20050;-62
2023/06/05 00:39:59;;;;;;;;;;;10.40;99.90;;;;;;5085729;28;20040;-61
2023/06/05 00:42:28;;;;;;;4.70;1.48;;;10.30;99.90;;;;;;5075410;28;19923;-61
2023/06/05 00:44:54;;;;;;;3.55;1.50;;;10.30;99.90;;;;;;5078910;28;20036;-57
2023/06/05 00:47:20;;;;;;;;;;;10.30;99.90;;;;;;5075493;28;20096;-62
2023/06/05 00:49:46;;;;;;;2.67;1.83;;;10.20;99.90;;;;;;5079129;28;20453;-61
2023/06/05 00:52:11;;;;;;;;;;;10.20;99.90;;;;;;5073146;28;20039;-61
2023/06/05 00:54:38;;;;;;;3.28;1.50;;;10.20;99.90;;;;;;5079090;28;20372;-62
2023/06/05 00:57:04;;;;;;;3.85;1.73;;;10.10;99.90;;;;;;5082551;28;20676;-63
2023/06/05 00:59:31;;;;;;;;;;;10.20;99.90;;;;;;5069094;28;20040;-58
2023/06/05 01:01:58;;;;;;;2.25;1.58;;;10.20;99.90;;;;;;5079956;28;19916;-61
2023/06/05 01:04:23;;;;;;;3.40;1.67;;;10.20;99.90;;;;;;5079247;28;20546;-61
2023/06/05 01:06:51;;;;;;;;;;;10.10;99.90;;;;;;5079457;28;20040;-60
2023/06/05 01:09:18;;;;;;;4.10;2.05;;;10.10;99.90;;;;;;5071693;28;20111;-59
2023/06/05 01:11:44;;;;;;;2.78;1.48;;;10.10;99.90;;;;;;5066832;28;20049;-60
2023/06/05 01:14:22;;;;;;;;;;;10.00;99.90;;;;;;5082356;28;20051;-59
2023/06/05 01:16:53;;;;;;;2.35;1.48;;;10.00;99.90;;;;;;5067888;28;19920;-60
2023/06/05 01:19:19;;;;;;;4.05;1.98;;;9.90;99.90;;;;;;5065235;28;20364;-61
2023/06/05 01:21:45;;;;;;;5.90;1.58;;;9.90;99.90;;;;;;5075433;28;20043;-59
2023/06/05 01:24:13;;;;;;;;;;;9.80;99.90;;;;;;5080156;28;20382;-63
2023/06/05 01:27:11;;;;;;;2.78;1.50;;;9.80;99.90;;;;;;5076385;28;19935;-61
2023/06/05 01:29:52;;;;;;;4.15;1.90;;;9.70;99.90;;;;;;5039146;28;20055;-62
2023/06/05 01:32:44;;;;;;;3.70;1.90;;;9.70;99.90;;;;;;5076484;28;20680;-62
2023/06/05 01:35:16;;;;;;;2.63;1.23;;;9.60;99.90;;;;;;5067935;28;20048;-60
2023/06/05 01:37:48;;;;;;;3.90;1.75;;;9.60;99.90;;;;;;5079347;28;20079;-62
2023/06/05 01:40:19;;;;;;;5.25;1.65;;;9.60;99.90;;;;;;5069269;28;20040;-60
2023/06/05 01:42:46;;;;;;;2.65;1.70;;;9.60;99.90;;;;;;5072699;28;20048;-62
2023/06/05 01:45:13;;;;;;;3.08;1.70;;;9.50;99.90;;;;;;5071797;28;20058;-59
2023/06/05 01:47:42;;;;;;;8.25;1.98;;;9.60;99.90;;;;;;5083776;28;20047;-57
2023/06/05 01:50:08;;;;;;;2.85;1.58;;;9.60;99.90;;;;;;5071434;28;20044;-60
2023/06/05 01:52:39;;;;;;;2.13;1.60;;;9.60;99.90;;;;;;5079229;28;20075;-60
2023/06/05 01:55:06;;;;;;;7.07;1.83;;;9.50;99.90;;;;;;5081106;28;20728;-56
2023/06/05 01:57:33;;;;;;;3.30;1.63;;;9.50;99.90;;;;;;5083620;28;20044;-58
2023/06/05 02:00:04;;;;;;;2.05;1.35;;;9.50;99.90;;;;;;5075225;28;20075;-62
2023/06/05 02:02:30;;;;;;;3.65;1.65;;;9.50;99.90;;;;;;5079030;28;20051;-62
2023/06/05 02:04:59;;;;;;;5.05;1.73;;;9.40;99.90;;;;;;5070274;28;20055;-57
2023/06/05 02:07:25;;;;;;;3.25;1.70;;;9.40;99.90;;;;;;5078120;28;20054;-59
2023/06/05 02:09:50;;;;;;;;;;;9.40;99.90;;;;;;5073216;28;20048;-57
2023/06/05 02:12:16;;;;;;;2.60;1.45;;;9.40;99.90;;;;;;5075046;28;20006;-63
2023/06/05 02:14:44;;;;;;;;;;;9.30;99.90;;;;;;5071200;28;20553;-56
2023/06/05 02:17:13;;;;;;;2.28;1.67;;;9.20;99.90;;;;;;5077839;28;20379;-60
2023/06/05 02:19:40;;;;;;;3.15;2.03;;;9.20;99.90;;;;;;5072393;28;20072;-59
2023/06/05 02:22:06;;;;;;;4.38;1.67;;;9.20;99.90;;;;;;5082538;28;20098;-61
2023/06/05 02:24:31;;;;;;;;;;;9.20;99.90;;;;;;5073369;28;20036;-57
2023/06/05 02:26:57;;;;;;;3.90;1.70;;;9.10;99.90;;;;;;5076212;28;19965;-59
2023/06/05 02:29:23;;;;;;;5.75;1.60;;;9.10;99.90;;;;;;5070076;28;20044;-60
2023/06/05 02:31:48;;;;;;;3.30;1.83;;;9.10;99.90;;;;;;5075995;28;20089;-57
2023/06/05 02:34:16;;;;;;;;;;;9.00;99.90;;;;;;5072345;28;20047;-59
2023/06/05 02:36:45;;;;;;;1.98;1.52;;;9.00;99.90;;;;;;5076359;28;19920;-62
2023/06/05 02:39:14;;;;;;;2.55;1.65;;;9.00;99.90;;;;;;5067380;28;20119;-61
2023/06/05 02:41:42;;;;;;;2.78;1.40;;;9.00;99.90;;;;;;5072389;28;20116;-61
2023/06/05 02:44:08;;;;;;;2.65;1.90;;;8.90;99.90;;;;;;5076827;28;20093;-61
2023/06/05 02:46:33;;;;;;;;;;;8.90;99.90;;;;;;5077040;28;20044;-60
2023/06/05 02:48:59;;;;;;;3.03;2.00;;;8.80;99.90;;;;;;5074770;28;19920;-61
2023/06/05 02:51:24;;;;;;;6.97;1.83;;;8.80;99.90;;;;;;5074881;28;20051;-60
2023/06/05 02:53:50;;;;;;;4.97;1.95;;;8.90;99.90;;;;;;5072496;28;20040;-59
2023/06/05 02:56:15;;;;;;;;;;;8.80;99.90;;;;;;5083426;28;20058;-61
2023/06/05 02:58:43;;;;;;;2.83;1.73;;;8.80;99.90;;;;;;5072913;28;20014;-59
2023/06/05 03:01:10;;;;;;;2.78;1.85;;;8.80;99.90;;;;;;5056035;28;20127;-61
2023/06/05 03:03:37;;;;;;;4.53;1.63;;;8.70;99.90;;;;;;5078788;28;20044;-61
2023/06/05 03:06:06;;;;;;;8.77;2.05;;;8.70;99.90;;;;;;5083834;28;20036;-61
2023/06/05 03:08:35;;;;;;;3.33;1.98;;;8.70;99.90;;;;;;5079831;28;20040;-61
2023/06/05 03:11:02;;;;;;;4.22;1.75;;;8.70;99.90;;;;;;5073805;28;20035;-63
2023/06/05 03:13:28;;;;;;;3.38;1.60;;;8.70;99.90;;;;;;5069045;28;20039;-61
2023/06/05 03:15:56;;;;;;;;;;;8.70;99.90;;;;;;5070159;28;20036;-59
2023/06/05 03:18:25;;;;;;;3.67;1.60;;;8.60;99.90;;;;;;5078108;28;19947;-61
2023/06/05 03:20:54;;;;;;;6.10;2.10;;;8.60;99.90;;;;;;5075170;28;20043;-60
2023/06/05 03:23:27;;;;;;;3.42;1.85;;;8.60;99.90;;;;;;5069164;28;20135;-61
2023/06/05 03:25:54;;;;;;;4.03;1.70;;;8.70;99.90;;;;;;5073866;28;20036;-61
2023/06/05 03:28:22;;;;;;;4.63;1.50;;;8.70;99.90;;;;;;5078616;28;20091;-62
2023/06/05 03:30:48;;;;;;;3.88;1.55;;;8.70;99.90;;;;;;5077477;28;20766;-61
2023/06/05 03:33:15;;;;;;;3.00;1.63;;;8.60;99.90;;;;;;5079797;28;20055;-58
2023/06/05 03:35:42;;;;;;;4.82;1.50;;;8.60;99.90;;;;;;5078238;28;20116;-56
2023/06/05 03:38:09;;;;;;;3.78;1.88;;;8.60;99.90;;;;;;5076740;28;20036;-56
2023/06/05 03:40:34;;;;;;;5.20;1.80;;;8.60;99.90;;;;;;5068959;28;20045;-61
2023/06/05 03:43:00;;;;;;;;;;;8.70;99.90;;;;;;5081494;28;20044;-59
2023/06/05 03:45:27;;;;;;;6.95;1.80;;;8.80;99.90;;;;;;5080345;28;19983;-62
2023/06/05 03:47:53;;;;;;;4.85;1.88;;;8.90;99.90;;;;;;5080562;28;20063;-61
2023/06/05 03:50:20;;;;;;;3.58;1.67;;;8.90;99.90;;;;;;5075334;28;20040;-59
2023/06/05 03:52:53;;;;;;;4.50;2.00;;;8.90;99.90;;;;;;5061140;28;20032;-61
2023/06/05 03:55:20;;;;;;;3.00;1.65;;;8.90;99.90;;;;;;5074187;28;20056;-62
2023/06/05 03:57:49;;;;;;;2.65;1.50;;;9.00;99.90;;;;;;5092911;28;20051;-62
2023/06/05 04:00:16;;;;;;;2.58;1.58;;;9.00;99.90;;;;;;5080583;28;20085;-60
2023/06/05 04:02:42;;;;;;;4.75;1.80;;;9.00;99.90;;;;;;5083079;28;20044;-62
2023/06/05 04:05:11;;;;;;;5.20;1.80;;;9.10;99.90;;;;;;5082678;28;20161;-61
2023/06/05 04:07:38;;;;;;;3.97;1.77;;;9.20;99.90;;;;;;5080393;28;20657;-59
2023/06/05 04:10:04;;;;;;;2.95;1.90;;;9.20;99.90;;;;;;5077442;28;20055;-58
2023/06/05 04:12:30;;;;;;;10.13;2.22;;;9.20;99.90;;;;;;5065947;28;20040;-60
2023/06/05 04:14:55;;;;;;;;;;;9.30;99.90;;;;;;5084372;28;20147;-58
2023/06/05 04:17:21;;;;;;;6.28;1.80;;;9.40;99.90;;;;;;5074305;28;19955;-60
2023/06/05 04:19:47;;;;;;;;;;;9.50;99.90;;;;;;5084437;28;20071;-60
2023/06/05 04:22:12;;;;;;;3.33;1.73;;;9.40;99.90;;;;;;5084737;28;19920;-62
2023/06/05 04:24:39;;;;;;;;;;;9.50;99.90;;;;;;5075391;28;20124;-60
2023/06/05 04:27:04;;;;;;;3.20;1.65;;;9.60;99.90;;;;;;5085318;28;20418;-59
2023/06/05 04:29:32;;;;;;;;;;;9.80;99.90;;;;;;5080100;28;20039;-61
2023/06/05 04:31:58;;;;;;;3.85;1.75;;;10.20;99.90;;;;;;5080227;28;19916;-61
2023/06/05 04:34:24;;;;;;;;;;;10.30;99.90;;;;;;5080336;28;20049;-59
2023/06/05 04:36:51;;;;;;;4.25;2.00;;;10.60;99.90;;;;;;5080310;28;19966;-59
2023/06/05 04:39:18;;;;;;;1.77;1.38;;;10.80;99.90;;;;;;5080456;28;20180;-60
2023/06/05 04:41:45;;;;;;;4.60;1.98;;;10.80;99.90;;;;;;5072928;28;20083;-59
2023/06/05 04:44:16;;;;;;;7.50;1.63;;;10.60;99.90;;;;;;5076206;28;20463;-62
2023/06/05 04:46:48;;;;;;;3.67;1.60;;;10.70;99.90;;;;;;5080916;28;20044;-56
2023/06/05 04:49:14;;;;;;;6.15;2.13;;;10.60;99.90;;;;;;5066953;28;20028;-58
2023/06/05 04:51:41;;;;;;;2.95;1.63;;;10.80;99.90;;;;;;5074814;28;20074;-62
2023/06/05 04:54:06;;;;;;;5.97;2.17;;;11.50;99.90;;;;;;5067988;28;20052;-55
2023/06/05 04:56:34;;;;;;;;;;;11.50;99.90;;;;;;5084556;28;20046;-60
2023/06/05 04:59:01;;;;;;;4.15;1.98;;;11.20;99.90;;;;;;5072171;28;20296;-57
2023/06/05 05:01:27;;;;;;;4.50;1.70;;;11.10;99.90;;;;;;5081483;28;20032;-61
2023/06/05 05:03:54;;;;;;;;;;;11.10;99.90;;;;;;5077999;28;20040;-61
2023/06/05 05:06:20;;;;;;;3.33;1.52;;;11.00;99.90;;;;;;5075708;28;19999;-61
2023/06/05 05:08:50;;;;;;;3.38;1.63;;;11.00;99.90;;;;;;5078341;28;20074;-59
2023/06/05 05:11:16;;;;;;;2.90;1.63;;;11.10;99.90;;;;;;5073938;28;20084;-61
2023/06/05 05:13:42;;;;;;;4.80;1.70;;;11.10;99.90;;;;;;5080598;28;20071;-61
2023/06/05 05:16:09;;;;;;;6.70;2.15;;;11.20;99.90;;;;;;5077113;28;20043;-63
2023/06/05 05:18:40;;;;;;;6.70;2.10;;;11.30;99.90;;;;;;5080922;28;20036;-61
2023/06/05 05:21:06;;;;;;;3.58;1.83;;;11.40;99.90;;;;;;5076380;28;20058;-62
2023/06/05 05:23:33;;;;;;;;;;;11.70;99.90;;;;;;5079035;28;20036;-61
2023/06/05 05:25:59;;;;;;;5.65;1.65;;;12.30;99.60;;;;;;5076889;28;20631;-60
2023/06/05 05:28:24;;;;;;;4.78;1.63;;;12.80;99.20;;;;;;5077791;28;20084;-62
2023/06/05 05:30:51;;;;;;;;;;;13.20;98.30;;;;;;5073140;28;20067;-59
2023/06/05 05:33:16;;;;;;;9.68;1.70;;;14.20;96.90;;;;;;5080364;28;19927;-60
2023/06/05 05:35:42;;;;;;;;;;;14.50;96.00;;;;;;5074205;28;20044;-60
2023/06/05 05:38:08;;;;;;;2.83;1.42;;;14.30;96.00;;;;;;5082485;28;19935;-60
2023/06/05 05:40:33;;;;;;;;;;;14.20;96.60;;;;;;5078159;28;20042;-60
2023/06/05 05:42:59;;;;;;;5.32;1.70;;;14.00;96.70;;;;;;5075810;28;20184;-60
2023/06/05 05:45:24;;;;;;;;;;;14.00;97.30;;;;;;5072503;28;20147;-59
2023/06/05 05:47:50;;;;;;;9.45;1.52;;;14.20;97.30;;;;;;5081203;28;19916;-60
2023/06/05 05:50:16;;;;;;;;;;;14.30;97.30;;;;;;5073537;28;20074;-61
2023/06/05 05:52:43;;;;;;;5.10;1.75;;;14.30;97.40;;;;;;5077396;28;20362;-58
2023/06/05 05:55:09;;;;;;;5.72;2.13;;;14.30;97.80;;;;;;5078870;28;20535;-60
2023/06/05 05:57:34;;;;;;;6.78;1.90;;;14.30;97.50;;;;;;5069240;28;20089;-61
2023/06/05 06:00:00;;;;;;;;;;;14.30;98.00;;;;;;5068499;28;20466;-61
2023/06/05 06:02:26;;;;;;;6.05;2.20;;;14.50;98.10;;;;;;5081152;28;19961;-62
2023/06/05 06:04:51;;;;;;;;;;;14.60;97.80;;;;;;5074722;28;20044;-60
2023/06/05 06:07:17;;;;;;;4.15;1.65;;;14.70;97.30;;;;;;5084458;28;19963;-61
2023/06/05 06:09:44;;;;;;;;;;;14.80;98.00;;;;;;5079573;28;20351;-62
2023/06/05 06:12:10;;;;;;;2.70;1.38;;;14.90;97.60;;;;;;5079206;28;19927;-62
2023/06/05 06:14:35;;;;;;;;;;;15.10;97.20;;;;;;5061943;28;20044;-62
2023/06/05 06:17:02;;;;;;;5.95;1.90;;;15.30;94.80;;;;;;5070443;28;19971;-60
2023/06/05 06:19:28;;;;;;;3.13;1.88;;;15.60;93.80;;;;;;5074007;28;20559;-62
2023/06/05 06:21:55;;;;;;;4.85;2.00;;;15.90;92.10;;;;;;5069515;28;20044;-61
2023/06/05 06:24:21;;;;;;;7.18;1.85;;;16.00;92.50;;;;;;5072720;28;20723;-61
2023/06/05 06:26:47;;;;;;;3.58;1.60;;;16.10;92.80;;;;;;5072055;28;20044;-62
2023/06/05 06:29:24;;;;;;;3.05;1.70;;;16.00;90.90;;;;;;5071934;28;20036;-62
2023/06/05 06:31:50;;;;;;;7.22;2.15;;;16.10;92.20;;;;;;5074041;28;20690;-62
2023/06/05 06:34:16;;;;;;;4.95;1.85;;;16.20;91.10;;;;;;5076839;28;20101;-62
2023/06/05 06:36:43;;;;;;;;;;;16.50;90.40;;;;;;5081437;28;20129;-62
2023/06/05 06:39:10;;;;;;;3.80;1.73;;;16.70;90.50;;;;;;5076076;28;19916;-62
2023/06/05 06:41:36;;;;;;;6.10;1.65;;;16.90;89.30;;;;;;5073848;28;20047;-62
2023/06/05 06:44:02;;;;;;;6.28;1.98;;;17.20;87.80;;;;;;5072675;28;20139;-62
2023/06/05 06:46:28;;;;;;;2.22;1.50;;;17.50;86.80;;;;;;5072851;28;20039;-61
2023/06/05 06:48:53;;;;;;;;;;;18.00;87.60;;;;;;5073381;28;20032;-62
2023/06/05 06:51:19;;;;;;;7.40;1.85;;;18.70;85.10;;;;;;5075928;28;19935;-63
2023/06/05 06:53:44;;;;;;;3.50;1.70;;;19.40;78.80;;;;;;5072952;28;20039;-63
2023/06/05 06:56:10;;;;;;;3.53;1.80;;;19.90;79.10;;;;;;5077883;28;20155;-61
2023/06/05 06:58:36;;;;;;;3.97;2.03;;;19.60;77.20;;;;;;5077715;28;20506;-62
2023/06/05 07:01:03;;;;;;;3.70;1.80;;;19.40;78.30;;;;;;5072934;28;20040;-63
2023/06/05 07:03:29;;;;;;;3.67;1.50;;;19.10;79.90;;;;;;5079035;28;20568;-61
2023/06/05 07:05:54;;;;;;;3.38;1.52;;;19.00;78.40;;;;;;5076703;28;20076;-61
2023/06/05 07:08:20;;;;;;;5.57;1.90;;;19.10;77.30;;;;;;5078112;28;20063;-60
2023/06/05 07:10:46;;;;;;;3.40;1.67;;;19.30;76.20;;;;;;5069249;28;20123;-60
2023/06/05 07:13:12;;;;;;;4.93;1.60;;;19.80;76.00;;;;;;5058649;28;20395;-61
2023/06/05 07:15:37;;;;;;;2.35;1.33;;;20.20;75.10;;;;;;5082498;28;20044;-59
2023/06/05 07:18:03;;;;;;;5.07;1.50;;;20.60;70.60;;;;;;5079588;28;20040;-59
2023/06/05 07:20:28;;;;;;;5.43;1.50;;;21.20;68.50;;;;;;5069218;28;20049;-60
2023/06/05 07:22:54;;;;;;;3.75;1.40;;;22.30;66.70;;;;;;5073825;28;20043;-60
2023/06/05 07:25:22;;;;;;;3.35;1.60;;;23.40;63.90;;;;;;5073800;28;20055;-61
2023/06/05 07:27:48;;;;;;;4.57;1.35;;;23.50;61.80;;;;;;5085499;28;20036;-61
2023/06/05 07:30:14;;;;;;;3.05;1.40;;;23.00;63.10;;;;;;5082171;28;20399;-60
2023/06/05 07:32:42;;;;;;;4.75;1.35;;;23.00;61.80;;;;;;5086849;28;20039;-61
2023/06/05 07:35:08;;;;;;;4.70;1.55;;;22.80;61.40;;;;;;5059300;28;20444;-60
2023/06/05 07:37:34;;;;;;;4.72;1.20;;;22.30;64.60;;;;;;5072821;28;20040;-62
2023/06/05 07:40:00;;;;;;;3.40;1.63;;;21.80;63.00;;;;;;5078098;28;20047;-63
2023/06/05 07:42:26;;;;;;;1.73;1.13;;;21.10;67.10;;;;;;5078744;28;20031;-60
2023/06/05 07:44:52;;;;;;;3.35;1.42;;;20.80;65.50;;;;;;5075782;28;20036;-61
2023/06/05 07:47:17;;;;;;;3.20;1.52;;;20.40;65.80;;;;;;5069892;28;20032;-59
2023/06/05 07:49:43;;;;;;;4.25;1.27;;;20.40;67.10;;;;;;5073119;28;20045;-61
2023/06/05 07:52:09;;;;;;;3.70;1.67;;;20.60;68.30;;;;;;5080927;28;20036;-60
2023/06/05 07:54:34;;;;;;;2.28;1.40;;;21.60;65.70;;;;;;5075935;28;20716;-60
2023/06/05 07:57:01;;;;;;;3.97;1.30;;;23.20;65.40;;;;;;5078931;28;20099;-62
2023/06/05 07:59:27;;;;;;;2.55;1.50;;;24.10;58.20;;;;;;5080344;28;20622;-62
2023/06/05 08:01:55;;;;;;;2.60;1.30;;;23.30;57.70;;;;;;5083001;28;20071;-62
2023/06/05 08:04:24;;;;;;;5.10;1.80;;;22.90;59.50;;;;;;5080217;28;20051;-62
2023/06/05 08:06:51;;;;;;;3.67;1.73;;;22.30;61.20;;;;;;5083834;28;20055;-63
2023/06/05 08:09:17;;;;;;;6.70;1.40;;;22.80;60.70;;;;;;5083956;28;20036;-64
2023/06/05 08:11:43;;;;;;;10.07;1.48;;;22.60;59.30;;;;;;5081337;28;20046;-65
2023/06/05 08:14:09;;;;;;;2.45;1.30;;;22.30;60.60;;;;;;5078139;28;20186;-64
2023/06/05 08:16:35;;;;;;;7.05;1.50;;;22.60;59.90;;;;;;5076909;28;20047;-64
2023/06/05 08:19:01;;;;;;;11.10;1.50;;;23.90;59.50;;;;;;5078791;28;20047;-63
2023/06/05 08:21:28;;;;;;;3.42;1.60;;;24.60;53.90;;;;;;5054965;28;20495;-62
2023/06/05 08:23:53;;;;;;;5.15;1.20;;;24.10;55.10;;;;;;5076940;28;20037;-62
2023/06/05 08:26:20;;;;;;;3.78;1.67;;;23.30;57.40;;;;;;5049643;28;20028;-61
2023/06/05 08:28:46;;;;;;;4.38;1.13;;;22.90;62.60;;;;;;5070436;28;20033;-62
2023/06/05 08:31:12;;;;;;;2.60;1.27;;;22.30;57.20;;;;;;5072799;28;20122;-62
2023/06/05 08:33:38;;;;;;;6.95;1.55;;;22.20;59.40;;;;;;5074586;28;20165;-63
2023/06/05 08:36:05;;;;;;;5.60;1.63;;;22.20;61.40;;;;;;5076665;28;20067;-62
2023/06/05 08:38:33;;;;;;;2.92;1.23;;;21.90;60.30;;;;;;5074364;28;20512;-63
2023/06/05 08:41:10;;;;;;;3.05;1.40;;;22.40;56.40;;;;;;5070590;28;20040;-62
2023/06/05 08:43:41;;;;;;;3.28;1.48;;;23.10;56.30;;;;;;5042169;28;20048;-62
2023/06/05 08:46:09;;;;;;;2.72;1.40;;;23.70;56.50;;;;;;5077240;28;20049;-64
2023/06/05 08:48:50;;;;;;;4.38;1.20;;;24.70;52.80;;;;;;5071476;28;20032;-64
2023/06/05 08:51:18;;;;;;;7.07;1.23;;;25.40;52.60;;;;;;5069865;28;20044;-63
2023/06/05 08:54:06;;;;;;;4.65;1.20;;;25.10;50.10;;;;;;5073693;28;20069;-62
2023/06/05 08:56:33;;;;;;;5.25;1.83;;;24.50;52.80;;;;;;5073517;28;20049;-63
2023/06/05 08:59:00;;;;;;;5.30;1.63;;;23.70;51.70;;;;;;5073488;28;20040;-62
2023/06/05 09:01:26;;;;;;;3.22;1.23;;;22.90;52.60;;;;;;5073527;28;20425;-63
2023/06/05 09:03:51;;;;;;;3.92;1.52;;;22.20;55.60;;;;;;5075837;28;20573;-62
2023/06/05 09:06:17;;;;;;;3.25;1.40;;;21.70;56.30;;;;;;5078344;28;20039;-61
2023/06/05 09:08:44;;;;;;;3.45;1.45;;;21.30;57.50;;;;;;5082143;28;20115;-62
2023/06/05 09:11:31;;;;;;;5.15;1.42;;;20.90;59.80;;;;;;5078525;28;20028;-62
2023/06/05 09:13:59;;;;;;;7.15;1.85;;;20.70;60.50;;;;;;5074143;28;20035;-62
2023/06/05 09:16:40;;;;;;;8.45;1.70;;;20.60;58.90;;;;;;5072002;28;20111;-62
2023/06/05 09:19:06;;;;;;;2.30;1.20;;;20.60;59.20;;;;;;5081159;28;20043;-63
2023/06/05 09:21:32;;;;;;;1.92;1.10;;;20.40;58.00;;;;;;5079872;28;20115;-62
2023/06/05 09:24:18;;;;;;;2.58;1.15;;;20.60;56.60;;;;;;5079235;28;20048;-62
2023/06/05 09:26:47;;;;;;;3.55;1.60;;;20.80;56.00;;;;;;5081928;28;20044;-62
2023/06/05 09:29:19;;;;;;;4.40;1.25;;;20.80;56.70;;;;;;5060629;28;20119;-63
2023/06/05 09:31:44;;;;;;;3.08;1.30;;;20.90;54.70;;;;;;5076906;28;20046;-62
2023/06/05 09:34:10;;;;;;;4.32;1.60;;;20.70;54.20;;;;;;5079377;28;20697;-62
2023/06/05 09:36:45;;;;;;;3.58;1.33;;;20.60;52.10;;;;;;5080201;28;20035;-63
2023/06/05 09:39:19;;;;;;;2.20;1.20;;;20.70;54.00;;;;;;5080484;28;20043;-62
2023/06/05 09:41:47;;;;;;;4.55;1.50;;;20.60;55.40;;;;;;5071739;28;20051;-63
2023/06/05 09:44:12;;;;;;;6.65;1.20;;;20.70;52.20;;;;;;5054278;28;20051;-62
2023/06/05 09:46:59;;;;;;;4.90;1.55;;;20.80;54.50;;;;;;5078180;28;20040;-62
2023/06/05 09:49:26;;;;;;;;;;;20.80;55.00;;;;;;5070280;28;20040;-62
2023/06/05 09:51:52;;;;;;;;;;;21.00;57.60;;;;;;5082530;28;19920;-62
2023/06/05 09:54:20;;;;;;;7.93;1.93;;;21.00;55.30;;;;;;5080446;28;19996;-61
2023/06/05 09:56:49;;;;;;;5.93;1.58;;;21.10;54.60;;;;;;5079396;28;20058;-62
2023/06/05 09:59:21;;;;;;;3.83;1.27;;;21.20;53.20;;;;;;5074693;28;20086;-62
2023/06/05 10:01:49;;;;;;;4.65;1.33;;;21.20;56.00;;;;;;5068057;28;20041;-62
2023/06/05 10:04:18;;;;;;;3.95;1.27;;;21.40;55.80;;;;;;5080784;28;20114;-62
2023/06/05 10:06:44;;;;;;;3.55;1.33;;;21.70;56.00;;;;;;5081245;28;20044;-63
2023/06/05 10:09:11;;;;;;;4.88;1.13;;;21.80;54.70;;;;;;5081880;28;20036;-63
2023/06/05 10:11:38;;;;;;;4.82;1.67;;;21.40;53.80;;;;;;5076648;28;20539;-62
2023/06/05 10:14:06;;;;;;;2.47;1.50;;;21.40;57.20;;;;;;5078034;28;20045;-62
2023/06/05 10:16:32;;;;;;;3.00;1.35;;;21.40;52.00;;;;;;5081190;28;20415;-62
2023/06/05 10:18:59;;;;;;;2.85;1.30;;;21.50;53.90;;;;;;5077900;28;20043;-63
2023/06/05 10:21:25;;;;;;;1.65;1.15;;;21.60;56.80;;;;;;5072679;28;20044;-63
2023/06/05 10:23:58;;;;;;;6.32;1.70;;;21.60;53.90;;;;;;5079156;28;20040;-62
2023/06/05 10:26:42;;;;;;;2.17;1.30;;;21.70;54.00;;;;;;5078052;28;20074;-62
2023/06/05 10:29:17;;;;;;;3.20;1.52;;;21.80;54.00;;;;;;5071101;28;20072;-62
2023/06/05 10:31:54;;;;;;;3.55;1.48;;;21.80;54.60;;;;;;5069974;28;20450;-62
2023/06/05 10:34:22;;;;;;;4.47;1.98;;;21.50;54.40;;;;;;5072372;28;20377;-63
2023/06/05 10:37:10;;;;;;;4.10;1.60;;;21.20;52.70;;;;;;5075613;28;20032;-63
2023/06/05 10:39:36;;;;;;;3.60;1.73;;;20.90;52.70;;;;;;5071265;28;20119;-62
2023/06/05 10:42:04;;;;;;;4.30;1.73;;;21.00;56.60;;;;;;5074973;28;20032;-63
2023/06/05 10:44:43;;;;;;;7.53;1.70;;;21.00;54.10;;;;;;5061615;28;20040;-63
2023/06/05 10:47:32;;;;;;;3.00;1.30;;;21.00;57.10;;;;;;5080776;28;20411;-63
2023/06/05 10:50:19;;;;;;;4.10;1.40;;;20.90;56.20;;;;;;5059040;28;20167;-62
2023/06/05 10:52:49;;;;;;;2.55;1.23;;;20.90;54.50;;;;;;5083870;28;20609;-62
2023/06/05 10:55:16;;;;;;;3.63;1.35;;;20.90;55.60;;;;;;5079053;28;20047;-62
2023/06/05 10:58:00;;;;;;;4.60;2.03;;;21.00;53.80;;;;;;5084070;28;20408;-63
2023/06/05 11:00:29;;;;;;;5.30;1.60;;;21.10;55.80;;;;;;5070116;28;20044;-64
2023/06/05 11:02:56;;;;;;;5.13;1.80;;;20.90;55.80;;;;;;5079833;28;20047;-62
2023/06/05 11:05:22;;;;;;;2.90;1.90;;;20.80;57.10;;;;;;5066780;28;20554;-62
2023/06/05 11:08:08;;;;;;;3.50;1.52;;;20.80;54.40;;;;;;5080976;28;20036;-63
2023/06/05 11:10:34;;;;;;;7.07;2.57;;;20.90;56.80;;;;;;5082102;28;20040;-64
2023/06/05 11:13:00;;;;;;;2.55;1.60;;;20.80;55.70;;;;;;5078221;28;20072;-64
2023/06/05 11:15:28;;;;;;;2.70;1.60;;;20.80;57.10;;;;;;5070047;28;20411;-63
2023/06/05 11:17:54;;;;;;;3.35;1.60;;;20.90;56.30;;;;;;5071591;28;20789;-63
2023/06/05 11:20:22;;;;;;;7.10;1.58;;;21.10;55.60;;;;;;5078935;28;20111;-64
2023/06/05 11:22:57;;;;;;;4.13;1.58;;;21.10;54.80;;;;;;5082058;28;20458;-62
2023/06/05 11:25:41;;;;;;;2.38;1.55;;;20.90;58.10;;;;;;5072850;28;20045;-64
2023/06/05 11:28:10;;;;;;;11.00;1.77;;;21.10;60.00;;;;;;5077647;28;20044;-64
2023/06/05 11:30:42;;;;;;;2.58;1.55;;;21.10;57.50;;;;;;5079469;28;20041;-64
2023/06/05 11:33:12;;;;;;;2.80;1.60;;;21.00;61.00;;;;;;5083761;28;20036;-65
2023/06/05 11:35:38;;;;;;;3.40;1.58;;;20.90;59.50;;;;;;5076653;28;20036;-64
2023/06/05 11:38:11;;;;;;;3.15;1.50;;;21.00;58.20;;;;;;5083561;28;20769;-64
2023/06/05 11:40:37;;;;;;;2.47;1.40;;;21.10;59.40;;;;;;5075251;28;20055;-64
2023/06/05 11:43:11;;;;;;;4.30;2.00;;;21.10;58.20;;;;;;5082842;28;20041;-64
2023/06/05 11:45:38;;;;;;;4.28;1.63;;;21.10;59.30;;;;;;5077442;28;20044;-64
2023/06/05 11:48:09;;;;;;;2.85;1.50;;;21.10;58.00;;;;;;5080890;28;20036;-64
2023/06/05 11:50:35;;;;;;;1.98;1.25;;;21.10;57.40;;;;;;5083609;28;20044;-64
2023/06/05 11:53:11;;;;;;;5.47;1.45;;;21.20;57.30;;;;;;5083260;28;20041;-65
2023/06/05 11:55:53;;;;;;;3.67;1.58;;;21.40;57.20;;;;;;5082125;28;20052;-65
2023/06/05 11:58:23;;;;;;;5.68;1.30;;;21.50;58.10;;;;;;5074688;28;20044;-65
2023/06/05 12:00:50;;;;;;;3.53;1.80;;;21.20;57.90;;;;;;5073272;28;20036;-62
2023/06/05 12:03:20;;;;;;;6.32;1.40;;;21.20;55.60;;;;;;5077937;28;20040;-61
2023/06/05 12:05:48;;;;;;;2.00;1.45;;;21.20;57.20;;;;;;5063903;28;20419;-62
2023/06/05 12:08:28;;;;;;;3.50;1.63;;;21.20;57.70;;;;;;5081195;28;20043;-63
2023/06/05 12:10:56;;;;;;;1.58;1.20;;;21.20;55.90;;;;;;5053598;28;20093;-64
2023/06/05 12:13:22;;;;;;;6.95;2.20;;;21.30;58.00;;;;;;5078053;28;20044;-62
2023/06/05 12:15:58;;;;;;;4.93;1.60;;;21.20;57.30;;;;;;5070075;28;20135;-63
2023/06/05 12:18:34;;;;;;;5.53;1.60;;;21.20;55.60;;;;;;5079268;28;20051;-62
2023/06/05 12:21:00;;;;;;;1.88;1.30;;;21.40;58.60;;;;;;5073948;28;20690;-62
2023/06/05 12:23:28;;;;;;;2.83;1.35;;;21.30;55.70;;;;;;5084060;28;20124;-61
2023/06/05 12:26:01;;;;;;;8.18;2.47;;;21.60;56.70;;;;;;5082794;28;20641;-61
2023/06/05 12:28:28;;;;;;;3.95;1.80;;;21.50;57.90;;;;;;5083856;28;20460;-63
2023/06/05 12:30:54;;;;;;;5.95;2.35;;;21.50;57.20;;;;;;5073029;28;20090;-62
2023/06/05 12:33:19;;;;;;;2.38;1.40;;;21.50;57.30;;;;;;5082036;28;20131;-62
2023/06/05 12:35:48;;;;;;;5.60;1.70;;;21.50;57.00;;;;;;5078021;28;20162;-62
2023/06/05 12:38:14;;;;;;;5.45;1.60;;;21.50;58.80;;;;;;5083917;28;20028;-62
2023/06/05 12:40:39;;;;;;;2.42;1.60;;;21.40;57.10;;;;;;5075084;28;20047;-62
2023/06/05 12:43:19;;;;;;;2.42;1.30;;;21.40;55.70;;;;;;5083726;28;20102;-63
2023/06/05 12:45:44;;;;;;;4.78;1.85;;;21.70;55.40;;;;;;5081007;28;20643;-62
2023/06/05 12:48:12;;;;;;;3.72;1.42;;;21.70;55.40;;;;;;5067221;28;20131;-62
2023/06/05 12:50:41;;;;;;;3.15;1.52;;;21.70;57.20;;;;;;5076608;28;20118;-63
2023/06/05 12:53:07;;;;;;;3.22;1.90;;;21.70;54.60;;;;;;5080866;28;20047;-66
2023/06/05 12:55:33;;;;;;;4.13;1.60;;;21.50;54.60;;;;;;5083920;28;20043;-62
2023/06/05 12:57:59;;;;;;;4.25;1.67;;;21.50;54.70;;;;;;5082649;28;20044;-63
2023/06/05 13:00:25;;;;;;;5.40;1.55;;;21.70;56.30;;;;;;5064112;28;20076;-63
2023/06/05 13:02:50;;;;;;;6.57;1.83;;;21.80;53.50;;;;;;5086165;28;20063;-63
2023/06/05 13:05:16;;;;;;;7.05;1.70;;;21.70;53.30;;;;;;5075638;28;20121;-63